Time;durP1;ratioP1;P1;durP2;ratioP2;P2;SDS_P1;SDS_P2;PMS_P1;PMS_P2;Temp;Humidity;BMP_temperature;BMP_pressure;BME280_temperature;BME280_humidity;BME280_pressure;Samples;Min_cycle;Max_cycle;Signal;HPM_P1;HPM_P2
2024/01/30 00:01:54;;;;;;;50.33;14.33;;;25.50;37.20;;;;;;5088398;28;20240;-72
2024/01/30 00:04:21;;;;;;;52.27;14.77;;;25.50;36.60;;;;;;5074678;28;20298;-72
2024/01/30 00:06:48;;;;;;;60.43;14.93;;;25.50;36.60;;;;;;5068584;28;20319;-72
2024/01/30 00:09:16;;;;;;;55.27;13.73;;;25.50;36.60;;;;;;5068342;28;20199;-72
2024/01/30 00:11:43;;;;;;;62.37;14.67;;;25.50;36.60;;;;;;5072379;28;20209;-73
2024/01/30 00:14:10;;;;;;;55.07;15.27;;;25.50;36.60;;;;;;5089416;28;20205;-73
2024/01/30 00:16:37;;;;;;;50.73;14.23;;;25.50;36.60;;;;;;5087771;28;20740;-72
2024/01/30 00:19:04;;;;;;;49.80;13.53;;;25.50;36.70;;;;;;5088232;28;20293;-73
2024/01/30 00:21:31;;;;;;;56.43;14.80;;;25.50;36.60;;;;;;5088524;28;20217;-73
2024/01/30 00:23:58;;;;;;;51.53;14.13;;;25.50;36.70;;;;;;5074563;28;20835;-73
2024/01/30 00:26:26;;;;;;;52.10;14.20;;;25.40;36.60;;;;;;5078354;28;20286;-76
2024/01/30 00:28:53;;;;;;;46.10;14.73;;;25.50;36.70;;;;;;5085216;28;20198;-72
2024/01/30 00:31:20;;;;;;;50.33;14.00;;;25.40;36.60;;;;;;5087353;28;20214;-81
2024/01/30 00:33:47;;;;;;;54.63;13.40;;;25.40;36.70;;;;;;5087604;28;20254;-79
2024/01/30 00:36:14;;;;;;;54.13;14.37;;;25.40;36.60;;;;;;5080997;28;20211;-73
2024/01/30 00:38:41;;;;;;;55.90;14.17;;;25.40;36.70;;;;;;5067618;28;20278;-73
2024/01/30 00:41:09;;;;;;;52.73;13.80;;;25.40;36.70;;;;;;5083615;28;20223;-73
2024/01/30 00:43:37;;;;;;;52.43;14.07;;;25.40;36.70;;;;;;5067291;28;20686;-73
2024/01/30 00:46:04;;;;;;;151.27;19.23;;;25.40;36.70;;;;;;5076552;28;20215;-73
2024/01/30 00:48:31;;;;;;;57.33;14.70;;;25.40;36.70;;;;;;5073374;28;20230;-72
2024/01/30 00:50:58;;;;;;;93.73;16.53;;;25.40;36.70;;;;;;5086805;28;20289;-72
2024/01/30 00:53:25;;;;;;;57.03;15.00;;;25.40;37.30;;;;;;5082401;28;20199;-74
2024/01/30 00:55:52;;;;;;;78.13;15.20;;;25.40;36.70;;;;;;5080485;28;20226;-72
2024/01/30 00:58:20;;;;;;;45.37;13.80;;;25.40;36.70;;;;;;5087405;28;20326;-72
2024/01/30 01:00:48;;;;;;;66.20;15.43;;;25.40;36.80;;;;;;5086428;28;20211;-73
2024/01/30 01:03:15;;;;;;;46.03;14.67;;;25.40;36.80;;;;;;5078108;28;20314;-74
2024/01/30 01:05:42;;;;;;;53.20;27.30;;;25.40;36.80;;;;;;5069049;28;20215;-73
2024/01/30 01:08:09;;;;;;;48.20;15.07;;;25.40;36.80;;;;;;5073251;28;20293;-73
2024/01/30 01:10:36;;;;;;;44.93;13.57;;;25.40;36.90;;;;;;5089037;28;20728;-73
2024/01/30 01:13:03;;;;;;;49.97;16.13;;;25.40;36.90;;;;;;5078980;28;20246;-71
2024/01/30 01:15:30;;;;;;;51.30;13.67;;;25.40;36.90;;;;;;5087977;28;20286;-72
2024/01/30 01:17:58;;;;;;;43.30;14.30;;;25.40;36.90;;;;;;5088107;28;20313;-72
2024/01/30 01:20:25;;;;;;;41.47;12.47;;;25.30;36.80;;;;;;5089446;28;20687;-72
2024/01/30 01:22:52;;;;;;;57.13;14.13;;;25.40;36.90;;;;;;5085136;28;20323;-74
2024/01/30 01:25:19;;;;;;;45.73;13.03;;;25.30;36.80;;;;;;5080029;28;20214;-72
2024/01/30 01:27:51;;;;;;;44.63;13.80;;;25.30;36.80;;;;;;5086186;28;20202;-74
2024/01/30 01:30:21;;;;;;;46.13;14.23;;;25.30;36.80;;;;;;5067917;28;20206;-74
2024/01/30 01:32:54;;;;;;;46.67;13.90;;;25.40;36.90;;;;;;5086975;28;20301;-74
2024/01/30 01:35:23;;;;;;;37.87;13.67;;;25.30;37.50;;;;;;5076358;28;20207;-75
2024/01/30 01:37:54;;;;;;;44.10;13.67;;;25.30;36.80;;;;;;5067338;28;20631;-75
2024/01/30 01:40:22;;;;;;;99.77;16.23;;;25.30;36.80;;;;;;5067594;28;20203;-76
2024/01/30 01:42:51;;;;;;;46.40;13.70;;;25.30;36.80;;;;;;5076716;28;20775;-77
2024/01/30 01:45:18;;;;;;;45.60;13.23;;;25.30;36.80;;;;;;5070087;28;20753;-75
2024/01/30 01:47:47;;;;;;;43.57;13.30;;;25.30;36.80;;;;;;5070809;28;20234;-74
2024/01/30 01:50:14;;;;;;;42.17;12.80;;;25.30;36.80;;;;;;5068094;28;20207;-78
2024/01/30 01:52:43;;;;;;;55.17;15.10;;;25.30;36.80;;;;;;5069390;28;20661;-76
2024/01/30 01:55:10;;;;;;;57.53;13.60;;;25.30;36.80;;;;;;5088004;28;20684;-78
2024/01/30 01:57:37;;;;;;;41.50;12.70;;;25.30;36.80;;;;;;5087654;28;20290;-77
2024/01/30 02:00:05;;;;;;;34.33;12.27;;;25.30;36.90;;;;;;5088147;28;20203;-74
2024/01/30 02:02:33;;;;;;;47.23;12.33;;;25.30;36.90;;;;;;5086774;28;20222;-75
2024/01/30 02:05:00;;;;;;;79.50;15.63;;;25.30;36.90;;;;;;5080154;28;20215;-77
2024/01/30 02:07:28;;;;;;;39.40;12.23;;;25.30;36.90;;;;;;5077134;28;20214;-77
2024/01/30 02:09:57;;;;;;;50.27;13.63;;;25.20;36.90;;;;;;5075548;28;20202;-75
2024/01/30 02:12:24;;;;;;;49.50;13.07;;;25.30;37.00;;;;;;5075201;28;20290;-80
2024/01/30 02:14:51;;;;;;;47.40;14.10;;;25.30;37.00;;;;;;5078948;28;20281;-79
2024/01/30 02:17:18;;;;;;;89.87;16.97;;;25.30;37.00;;;;;;5083594;28;20203;-80
2024/01/30 02:19:45;;;;;;;43.73;13.60;;;25.20;36.90;;;;;;5072775;28;20203;-77
2024/01/30 02:22:14;;;;;;;59.73;13.53;;;25.20;36.90;;;;;;5076973;28;20598;-81
2024/01/30 02:24:41;;;;;;;52.10;13.43;;;25.20;37.00;;;;;;5079193;28;20223;-79
2024/01/30 02:27:08;;;;;;;46.07;13.20;;;25.20;37.00;;;;;;5085882;28;20198;-84
2024/01/30 02:29:35;;;;;;;51.27;13.10;;;25.20;37.00;;;;;;5084231;28;20290;-80
2024/01/30 02:32:02;;;;;;;55.83;13.77;;;25.20;37.00;;;;;;5085125;28;20211;-79
2024/01/30 02:34:28;;;;;;;79.33;16.50;;;25.20;37.00;;;;;;5084289;28;20218;-81
2024/01/30 02:36:55;;;;;;;57.63;14.40;;;25.20;37.00;;;;;;5086079;28;20199;-81
2024/01/30 02:39:24;;;;;;;58.40;14.60;;;25.20;37.00;;;;;;5083460;28;20282;-78
2024/01/30 02:41:51;;;;;;;43.30;12.97;;;25.20;37.00;;;;;;5071452;28;20644;-81
2024/01/30 02:44:18;;;;;;;44.73;13.13;;;25.20;37.00;;;;;;5077260;28;20286;-82
2024/01/30 02:46:45;;;;;;;45.43;13.33;;;25.20;37.10;;;;;;5078699;28;20329;-79
2024/01/30 02:49:12;;;;;;;49.67;13.70;;;25.20;37.10;;;;;;5085673;28;20318;-78
2024/01/30 02:51:39;;;;;;;71.53;14.90;;;25.20;37.10;;;;;;5084636;28;20196;-79
2024/01/30 02:54:06;;;;;;;52.70;13.63;;;25.20;37.10;;;;;;5066115;28;20210;-74
2024/01/30 02:56:34;;;;;;;70.87;14.90;;;25.10;37.00;;;;;;5065961;28;20246;-84
2024/01/30 02:59:01;;;;;;;42.27;13.80;;;25.20;37.10;;;;;;5067000;28;20217;-84
2024/01/30 03:01:28;;;;;;;73.87;15.47;;;25.10;37.00;;;;;;5065012;28;20210;-77
2024/01/30 03:03:55;;;;;;;58.27;13.57;;;25.20;37.10;;;;;;5072392;28;20248;-76
2024/01/30 03:06:22;;;;;;;52.03;14.20;;;25.20;37.10;;;;;;5081853;28;20302;-77
2024/01/30 03:08:49;;;;;;;45.23;13.57;;;25.20;37.20;;;;;;5066974;28;20320;-78
2024/01/30 03:11:16;;;;;;;85.30;16.00;;;25.10;37.10;;;;;;5085301;28;20194;-75
2024/01/30 03:13:44;;;;;;;62.33;14.63;;;25.10;37.10;;;;;;5086102;28;20301;-75
2024/01/30 03:16:11;;;;;;;52.90;13.20;;;25.10;37.10;;;;;;5086938;28;20688;-75
2024/01/30 03:18:38;;;;;;;53.57;14.67;;;25.10;37.10;;;;;;5086965;28;20293;-75
2024/01/30 03:21:06;;;;;;;59.83;15.43;;;25.10;37.20;;;;;;5083137;28;20206;-75
2024/01/30 03:23:32;;;;;;;55.50;13.80;;;25.10;37.20;;;;;;5081024;28;20603;-75
2024/01/30 03:25:59;;;;;;;49.43;13.53;;;25.10;37.20;;;;;;5076442;28;20208;-76
2024/01/30 03:28:26;;;;;;;65.77;14.50;;;25.10;37.20;;;;;;5083545;28;20242;-75
2024/01/30 03:30:55;;;;;;;66.60;15.83;;;25.10;37.20;;;;;;5084035;28;20210;-75
2024/01/30 03:33:21;;;;;;;94.47;15.93;;;25.10;37.20;;;;;;5083953;28;20318;-76
2024/01/30 03:35:48;;;;;;;51.50;13.80;;;25.10;37.20;;;;;;5069458;28;20203;-75
2024/01/30 03:38:15;;;;;;;80.50;14.63;;;25.10;37.20;;;;;;5065813;28;20310;-75
2024/01/30 03:40:42;;;;;;;45.17;14.53;;;25.10;37.90;;;;;;5067455;28;20722;-74
2024/01/30 03:43:09;;;;;;;45.00;12.43;;;25.10;37.30;;;;;;5085875;28;20317;-75
2024/01/30 03:45:36;;;;;;;72.27;14.17;;;25.10;37.20;;;;;;5071554;28;20294;-74
2024/01/30 03:48:05;;;;;;;46.13;13.67;;;25.10;37.30;;;;;;5070361;28;20309;-75
2024/01/30 03:50:32;;;;;;;84.30;16.47;;;25.00;37.20;;;;;;5073196;28;20202;-76
2024/01/30 03:52:59;;;;;;;52.50;14.00;;;25.00;37.30;;;;;;5085532;28;20209;-76
2024/01/30 03:55:26;;;;;;;109.43;22.57;;;25.00;37.30;;;;;;5072499;28;20357;-74
2024/01/30 03:57:53;;;;;;;78.83;16.47;;;25.00;37.30;;;;;;5076634;28;20312;-78
2024/01/30 04:00:20;;;;;;;130.63;18.37;;;25.00;37.30;;;;;;5067890;28;20203;-72
2024/01/30 04:02:47;;;;;;;98.47;16.10;;;25.00;37.30;;;;;;5074772;28;20224;-82
2024/01/30 04:05:15;;;;;;;63.50;13.50;;;25.00;37.30;;;;;;5082451;28;20199;-76
2024/01/30 04:07:42;;;;;;;74.93;14.87;;;25.10;37.40;;;;;;5072163;28;20201;-86
2024/01/30 04:10:10;;;;;;;60.80;14.87;;;25.00;37.40;;;;;;5072893;28;20294;-72
2024/01/30 04:12:37;;;;;;;80.20;15.53;;;25.00;37.30;;;;;;5072704;28;20291;-77
2024/01/30 04:15:05;;;;;;;69.63;14.13;;;25.00;37.30;;;;;;5087267;28;20279;-73
2024/01/30 04:17:32;;;;;;;57.93;13.40;;;25.00;37.40;;;;;;5079782;28;20205;-85
2024/01/30 04:19:59;;;;;;;58.43;13.97;;;25.00;37.40;;;;;;5079243;28;20199;-76
2024/01/30 04:22:27;;;;;;;58.83;14.33;;;25.00;37.40;;;;;;5074353;28;20344;-74
2024/01/30 04:24:54;;;;;;;89.00;15.23;;;25.00;37.40;;;;;;5069336;28;20203;-77
2024/01/30 04:27:21;;;;;;;60.70;14.43;;;25.00;37.40;;;;;;5067984;28;20199;-70
2024/01/30 04:29:48;;;;;;;64.83;13.87;;;25.00;37.40;;;;;;5070134;28;20198;-73
2024/01/30 04:32:15;;;;;;;57.17;13.63;;;25.00;37.40;;;;;;5085865;28;20215;-70
2024/01/30 04:34:42;;;;;;;61.27;13.80;;;25.00;37.40;;;;;;5078891;28;20205;-70
2024/01/30 04:37:09;;;;;;;57.80;13.37;;;25.00;37.40;;;;;;5085347;28;20203;-70
2024/01/30 04:39:37;;;;;;;55.30;14.40;;;25.00;37.40;;;;;;5084773;28;20203;-74
2024/01/30 04:42:04;;;;;;;62.57;14.77;;;25.00;37.40;;;;;;5086794;28;20202;-71
2024/01/30 04:44:31;;;;;;;54.93;13.40;;;25.00;37.40;;;;;;5070247;28;20218;-73
2024/01/30 04:47:01;;;;;;;52.47;14.73;;;25.00;37.50;;;;;;5076930;28;20222;-76
2024/01/30 04:49:29;;;;;;;126.37;18.40;;;25.00;37.50;;;;;;5070831;28;20195;-77
2024/01/30 04:51:55;;;;;;;63.57;14.10;;;25.00;38.10;;;;;;5066947;28;20195;-71
2024/01/30 04:54:22;;;;;;;82.97;14.50;;;25.00;37.50;;;;;;5066144;28;20295;-71
2024/01/30 04:56:51;;;;;;;60.57;13.63;;;25.00;37.60;;;;;;5067619;28;20200;-73
2024/01/30 04:59:18;;;;;;;62.73;13.87;;;25.00;37.50;;;;;;5080548;28;20199;-70
2024/01/30 05:01:44;;;;;;;89.97;14.47;;;25.00;37.50;;;;;;5085869;28;20199;-70
2024/01/30 05:04:12;;;;;;;69.40;13.93;;;25.00;37.60;;;;;;5088034;28;20229;-70
2024/01/30 05:06:38;;;;;;;58.07;13.67;;;25.00;37.60;;;;;;5088075;28;20206;-73
2024/01/30 05:09:05;;;;;;;64.40;14.70;;;25.00;37.60;;;;;;5085641;28;20213;-72
2024/01/30 05:11:37;;;;;;;63.40;13.57;;;24.90;37.50;;;;;;5088305;28;20289;-70
2024/01/30 05:14:05;;;;;;;65.53;13.70;;;25.00;37.60;;;;;;5075290;28;20295;-74
2024/01/30 05:16:33;;;;;;;73.10;13.77;;;24.90;37.50;;;;;;5067811;28;20675;-71
2024/01/30 05:19:00;;;;;;;71.13;14.40;;;24.90;37.50;;;;;;5077614;28;20209;-70
2024/01/30 05:21:27;;;;;;;69.20;14.37;;;24.90;37.60;;;;;;5087735;28;20209;-72
2024/01/30 05:23:54;;;;;;;64.33;13.43;;;24.90;37.50;;;;;;5085587;28;20262;-71
2024/01/30 05:26:22;;;;;;;65.03;13.37;;;25.00;37.60;;;;;;5073325;28;21004;-72
2024/01/30 05:28:49;;;;;;;60.63;13.87;;;24.90;37.60;;;;;;5071210;28;20192;-70
2024/01/30 05:31:17;;;;;;;81.40;15.10;;;25.00;37.60;;;;;;5074328;28;20313;-72
2024/01/30 05:33:44;;;;;;;65.17;13.67;;;24.90;37.60;;;;;;5069022;28;20203;-70
2024/01/30 05:36:13;;;;;;;88.73;15.17;;;24.90;37.50;;;;;;5067318;28;20202;-70
2024/01/30 05:38:40;;;;;;;56.53;13.63;;;24.90;37.60;;;;;;5080156;28;20215;-70
2024/01/30 05:41:07;;;;;;;56.97;14.53;;;24.90;37.60;;;;;;5082928;28;20295;-71
2024/01/30 05:43:33;;;;;;;47.50;12.17;;;24.90;37.60;;;;;;5080282;28;20223;-74
2024/01/30 05:46:00;;;;;;;62.63;14.20;;;24.90;37.60;;;;;;5087419;28;20310;-74
2024/01/30 05:48:29;;;;;;;62.57;14.00;;;24.90;37.60;;;;;;5087700;28;20230;-71
2024/01/30 05:50:56;;;;;;;58.53;12.87;;;24.90;37.60;;;;;;5087262;28;20295;-70
2024/01/30 05:53:23;;;;;;;64.77;13.90;;;24.90;37.60;;;;;;5083689;28;20202;-71
2024/01/30 05:55:50;;;;;;;57.30;13.30;;;24.90;37.60;;;;;;5086135;28;20286;-71
2024/01/30 05:58:17;;;;;;;67.13;14.53;;;24.90;37.70;;;;;;5079177;28;20202;-70
2024/01/30 06:00:44;;;;;;;115.63;16.87;;;24.90;37.70;;;;;;5081725;28;20640;-70
2024/01/30 06:03:10;;;;;;;63.37;13.10;;;24.90;37.70;;;;;;5066015;28;20219;-72
2024/01/30 06:05:39;;;;;;;52.67;13.20;;;24.90;37.70;;;;;;5066454;28;20287;-76
2024/01/30 06:08:06;;;;;;;60.97;14.37;;;24.90;37.70;;;;;;5071403;28;20731;-72
2024/01/30 06:10:33;;;;;;;61.13;14.20;;;24.90;37.70;;;;;;5086698;28;20279;-72
2024/01/30 06:13:00;;;;;;;64.73;14.43;;;24.90;37.80;;;;;;5079764;28;20203;-70
2024/01/30 06:15:29;;;;;;;57.97;13.37;;;24.90;37.70;;;;;;5066368;28;20215;-70
2024/01/30 06:17:56;;;;;;;58.93;14.53;;;24.90;38.40;;;;;;5066319;28;20202;-70
2024/01/30 06:20:23;;;;;;;77.90;13.83;;;24.90;37.70;;;;;;5066125;28;20329;-70
2024/01/30 06:22:51;;;;;;;65.90;14.20;;;24.90;37.80;;;;;;5065833;28;20223;-70
2024/01/30 06:25:18;;;;;;;60.83;13.30;;;24.90;38.40;;;;;;5068743;28;20199;-71
2024/01/30 06:27:45;;;;;;;67.17;14.37;;;24.90;37.80;;;;;;5066464;28;20191;-70
2024/01/30 06:30:13;;;;;;;63.90;13.93;;;24.80;37.70;;;;;;5063353;28;20217;-70
2024/01/30 06:32:40;;;;;;;99.67;16.23;;;24.80;37.70;;;;;;5063616;28;20237;-72
2024/01/30 06:35:08;;;;;;;62.77;13.80;;;24.80;37.70;;;;;;5065784;28;20298;-72
2024/01/30 06:37:35;;;;;;;67.20;16.00;;;24.80;37.80;;;;;;5077420;28;20214;-70
2024/01/30 06:40:04;;;;;;;74.13;14.43;;;24.80;38.30;;;;;;5068144;28;20202;-70
2024/01/30 06:42:31;;;;;;;68.03;14.33;;;24.80;37.80;;;;;;5065213;28;20210;-71
2024/01/30 06:44:58;;;;;;;47.63;13.20;;;24.80;37.80;;;;;;5066449;28;20211;-70
2024/01/30 06:47:25;;;;;;;99.90;15.93;;;24.80;37.80;;;;;;5082105;28;20235;-76
2024/01/30 06:49:52;;;;;;;62.63;14.33;;;24.80;37.80;;;;;;5065783;28;20691;-71
2024/01/30 06:52:20;;;;;;;94.70;15.87;;;24.80;37.80;;;;;;5069423;28;20711;-70
2024/01/30 06:54:47;;;;;;;103.93;16.87;;;24.90;37.90;;;;;;5067735;28;20286;-70
2024/01/30 06:57:15;;;;;;;65.43;14.27;;;24.80;37.80;;;;;;5085697;28;20206;-73
2024/01/30 06:59:43;;;;;;;61.43;14.23;;;24.80;37.80;;;;;;5075516;28;20281;-70
2024/01/30 07:02:10;;;;;;;78.10;14.18;;;24.80;37.80;;;;;;5081472;28;20479;-73
2024/01/30 07:04:39;;;;;;;69.30;14.00;;;24.80;38.20;;;;;;5082722;28;20646;-73
2024/01/30 07:07:11;;;;;;;63.70;14.63;;;24.70;38.00;;;;;;5086006;28;20187;-72
2024/01/30 07:09:38;;;;;;;65.70;15.97;;;24.80;38.10;;;;;;5076091;28;20214;-72
2024/01/30 07:12:06;;;;;;;55.33;15.60;;;24.80;38.10;;;;;;5065577;28;20207;-75
2024/01/30 07:14:34;;;;;;;60.90;15.73;;;24.80;38.10;;;;;;5065136;28;20619;-72
2024/01/30 07:17:01;;;;;;;58.40;16.73;;;24.80;38.00;;;;;;5066077;28;20194;-72
2024/01/30 07:19:28;;;;;;;97.87;19.43;;;24.80;38.00;;;;;;5065999;28;20192;-76
2024/01/30 07:21:55;;;;;;;59.10;16.47;;;24.80;38.00;;;;;;5073698;28;20213;-72
2024/01/30 07:24:22;;;;;;;66.40;17.23;;;24.80;38.00;;;;;;5086342;28;20225;-72
2024/01/30 07:26:49;;;;;;;84.30;19.03;;;24.80;38.00;;;;;;5080767;28;20679;-72
2024/01/30 07:29:16;;;;;;;68.97;19.97;;;24.80;38.00;;;;;;5064706;28;20238;-77
2024/01/30 07:31:44;;;;;;;128.53;29.40;;;24.80;38.00;;;;;;5073830;28;20309;-75
2024/01/30 07:34:11;;;;;;;72.60;20.80;;;24.80;38.10;;;;;;5071609;28;20288;-74
2024/01/30 07:36:38;;;;;;;67.20;21.07;;;24.80;38.10;;;;;;5072773;28;20196;-74
2024/01/30 07:39:05;;;;;;;76.57;19.80;;;24.80;38.10;;;;;;5068284;28;20211;-74
2024/01/30 07:41:32;;;;;;;77.83;22.17;;;24.80;38.10;;;;;;5079401;28;20275;-75
2024/01/30 07:43:59;;;;;;;66.63;19.47;;;24.80;38.10;;;;;;5084977;28;20321;-74
2024/01/30 07:46:26;;;;;;;65.77;19.03;;;24.80;38.10;;;;;;5070486;28;20763;-74
2024/01/30 07:48:55;;;;;;;73.10;21.73;;;24.80;38.10;;;;;;5089222;28;20206;-74
2024/01/30 07:51:22;;;;;;;65.50;20.47;;;24.80;38.10;;;;;;5089601;28;20209;-73
2024/01/30 07:53:49;;;;;;;80.13;20.83;;;24.80;38.10;;;;;;5081993;28;20229;-74
2024/01/30 07:56:17;;;;;;;111.60;23.37;;;24.80;38.10;;;;;;5069379;28;20879;-75
2024/01/30 07:58:44;;;;;;;57.13;20.37;;;24.80;38.10;;;;;;5089499;28;20207;-74
2024/01/30 08:01:11;;;;;;;132.97;24.97;;;24.80;38.10;;;;;;5087809;28;20543;-74
2024/01/30 08:03:40;;;;;;;64.67;18.80;;;24.80;38.10;;;;;;5083741;28;20659;-76
2024/01/30 08:06:09;;;;;;;63.13;21.63;;;24.80;38.10;;;;;;5083372;28;20211;-75
2024/01/30 08:08:37;;;;;;;63.60;20.77;;;24.80;38.10;;;;;;5072274;28;20204;-74
2024/01/30 08:11:04;;;;;;;62.13;19.33;;;24.80;38.10;;;;;;5068700;28;20206;-74
2024/01/30 08:13:31;;;;;;;64.17;19.63;;;24.80;38.10;;;;;;5068598;28;20282;-74
2024/01/30 08:15:58;;;;;;;80.00;21.47;;;24.80;38.10;;;;;;5068762;28;20211;-78
2024/01/30 08:18:26;;;;;;;74.53;21.03;;;24.80;38.10;;;;;;5068609;28;20283;-74
2024/01/30 08:20:53;;;;;;;124.03;23.33;;;24.80;38.10;;;;;;5067904;28;20926;-74
2024/01/30 08:23:21;;;;;;;69.73;20.00;;;24.80;38.10;;;;;;5087412;28;20294;-73
2024/01/30 08:25:48;;;;;;;65.07;20.23;;;24.80;38.10;;;;;;5083682;28;20195;-74
2024/01/30 08:28:15;;;;;;;62.93;22.03;;;24.80;38.10;;;;;;5070501;28;20200;-74
2024/01/30 08:30:42;;;;;;;76.93;21.67;;;24.80;38.10;;;;;;5067886;28;20298;-76
2024/01/30 08:33:09;;;;;;;107.17;23.47;;;24.80;38.10;;;;;;5067988;28;20221;-74
2024/01/30 08:35:36;;;;;;;66.00;20.77;;;24.70;38.10;;;;;;5078330;28;20286;-74
2024/01/30 08:38:03;;;;;;;71.43;22.23;;;24.70;38.00;;;;;;5080908;28;20201;-73
2024/01/30 08:40:31;;;;;;;107.30;22.30;;;24.70;38.10;;;;;;5086350;28;20922;-74
2024/01/30 08:42:58;;;;;;;50.50;20.73;;;24.70;38.10;;;;;;5079458;28;20633;-75
2024/01/30 08:45:25;;;;;;;71.40;21.17;;;24.80;38.20;;;;;;5067510;28;20231;-74
2024/01/30 08:47:52;;;;;;;58.80;21.40;;;24.70;38.10;;;;;;5080753;28;20214;-76
2024/01/30 08:50:19;;;;;;;66.90;20.07;;;24.70;38.10;;;;;;5088686;28;20190;-74
2024/01/30 08:52:46;;;;;;;63.30;20.10;;;24.80;38.20;;;;;;5088545;28;20527;-75
2024/01/30 08:55:13;;;;;;;76.97;22.20;;;24.70;38.20;;;;;;5077403;28;20208;-74
2024/01/30 08:57:41;;;;;;;67.00;22.00;;;24.70;38.10;;;;;;5066725;28;20214;-74
2024/01/30 09:00:10;;;;;;;67.83;19.77;;;24.80;38.30;;;;;;5080623;28;20195;-76
2024/01/30 09:02:37;;;;;;;61.57;19.13;;;24.80;38.30;;;;;;5088525;28;20191;-79
2024/01/30 09:05:04;;;;;;;67.13;21.17;;;24.80;38.30;;;;;;5087898;28;20329;-74
2024/01/30 09:07:31;;;;;;;47.87;19.70;;;24.70;38.20;;;;;;5088471;28;20294;-75
2024/01/30 09:09:58;;;;;;;64.53;20.33;;;24.70;38.30;;;;;;5069096;28;21028;-81
2024/01/30 09:12:25;;;;;;;71.00;20.80;;;24.80;38.30;;;;;;5074722;28;20199;-76
2024/01/30 09:14:53;;;;;;;163.73;32.73;;;24.70;38.30;;;;;;5084039;28;20202;-73
2024/01/30 09:17:20;;;;;;;97.37;23.00;;;24.70;38.30;;;;;;5073661;28;20310;-77
2024/01/30 09:19:47;;;;;;;58.60;20.57;;;24.80;38.40;;;;;;5076248;28;20278;-71
2024/01/30 09:22:15;;;;;;;83.57;21.17;;;24.70;38.30;;;;;;5087353;28;20209;-78
2024/01/30 09:24:48;;;;;;;70.20;20.00;;;24.70;38.30;;;;;;5088040;28;20309;-78
2024/01/30 09:27:20;;;;;;;59.80;19.20;;;24.70;38.30;;;;;;5070310;28;20211;-82
2024/01/30 09:29:46;;;;;;;65.33;19.33;;;24.70;38.30;;;;;;5074342;28;20195;-80
2024/01/30 09:32:15;;;;;;;81.90;22.30;;;24.70;38.20;;;;;;5070060;28;20212;-79
2024/01/30 09:34:42;;;;;;;57.40;20.40;;;24.70;38.30;;;;;;5071997;28;20203;-83
2024/01/30 09:37:09;;;;;;;62.40;20.53;;;24.70;38.30;;;;;;5070688;28;20196;-81
2024/01/30 09:39:35;;;;;;;74.83;20.70;;;24.70;38.30;;;;;;5083270;28;20278;-80
2024/01/30 09:42:07;;;;;;;76.40;20.23;;;24.70;38.30;;;;;;5087452;28;20278;-80
2024/01/30 09:44:38;;;;;;;70.00;21.13;;;24.70;38.40;;;;;;5086731;28;20222;-76
2024/01/30 09:47:06;;;;;;;60.37;20.13;;;24.70;38.50;;;;;;5073042;28;20223;-73
2024/01/30 09:49:36;;;;;;;56.60;20.90;;;24.70;38.40;;;;;;5085279;28;20630;-77
2024/01/30 09:52:04;;;;;;;58.40;21.40;;;24.70;38.40;;;;;;5075214;28;20206;-82
2024/01/30 09:54:32;;;;;;;40.97;19.87;;;24.70;38.50;;;;;;5088414;28;20289;-73
2024/01/30 09:56:59;;;;;;;58.57;19.90;;;24.70;38.50;;;;;;5088263;28;20209;-83
2024/01/30 09:59:26;;;;;;;50.77;19.90;;;24.70;38.50;;;;;;5088399;28;20976;-73
2024/01/30 10:01:53;;;;;;;65.27;20.63;;;24.70;38.50;;;;;;5086773;28;20234;-75
2024/01/30 10:04:20;;;;;;;54.03;20.00;;;24.80;38.50;;;;;;5081003;28;20227;-80
2024/01/30 10:06:51;;;;;;;108.67;23.53;;;24.70;38.50;;;;;;5066012;28;20250;-73
2024/01/30 10:09:19;;;;;;;60.67;21.47;;;24.70;38.50;;;;;;5078364;28;20210;-74
2024/01/30 10:11:45;;;;;;;68.53;23.37;;;24.70;38.50;;;;;;5085042;28;20195;-75
2024/01/30 10:14:13;;;;;;;60.03;20.43;;;24.70;38.50;;;;;;5067950;28;20257;-75
2024/01/30 10:16:39;;;;;;;49.37;18.33;;;24.80;38.60;;;;;;5080229;28;20260;-74
2024/01/30 10:19:07;;;;;;;42.70;20.97;;;24.70;38.50;;;;;;5087483;28;20198;-73
2024/01/30 10:21:34;;;;;;;58.93;21.10;;;24.70;38.50;;;;;;5084365;28;20202;-72
2024/01/30 10:24:02;;;;;;;43.27;20.20;;;24.80;38.50;;;;;;5075481;28;20200;-74
2024/01/30 10:26:33;;;;;;;55.10;20.73;;;24.70;38.50;;;;;;5071422;28;20262;-76
2024/01/30 10:29:00;;;;;;;47.30;20.00;;;24.70;38.50;;;;;;5067861;28;20187;-81
2024/01/30 10:31:27;;;;;;;49.00;21.53;;;24.80;38.60;;;;;;5067993;28;21064;-77
2024/01/30 10:33:54;;;;;;;56.30;19.37;;;24.80;39.20;;;;;;5074806;28;20289;-77
2024/01/30 10:36:26;;;;;;;48.30;18.53;;;24.80;38.50;;;;;;5067408;28;20281;-77
2024/01/30 10:38:56;;;;;;;67.27;21.17;;;24.70;38.50;;;;;;5068536;28;20209;-78
2024/01/30 10:41:28;;;;;;;51.83;20.73;;;24.70;38.50;;;;;;5085569;28;20283;-75
2024/01/30 10:44:11;;;;;;;58.73;21.77;;;24.70;38.50;;;;;;5080912;28;20234;-76
2024/01/30 10:46:39;;;;;;;59.70;21.97;;;24.80;38.60;;;;;;5067105;28;20234;-76
2024/01/30 10:49:07;;;;;;;54.93;21.77;;;24.70;38.50;;;;;;5078230;28;20209;-77
2024/01/30 10:51:36;;;;;;;65.23;20.60;;;24.70;38.50;;;;;;5067259;28;20214;-78
2024/01/30 10:54:06;;;;;;;68.07;21.53;;;24.70;38.50;;;;;;5068765;28;20205;-76
2024/01/30 10:56:36;;;;;;;59.47;21.60;;;24.70;38.50;;;;;;5069486;28;20198;-75
2024/01/30 10:59:03;;;;;;;55.70;21.73;;;24.70;38.50;;;;;;5081815;28;20308;-77
2024/01/30 11:01:31;;;;;;;64.53;20.57;;;24.70;38.50;;;;;;5066579;28;20203;-79
2024/01/30 11:03:58;;;;;;;50.07;20.33;;;24.70;38.50;;;;;;5069518;28;20294;-72
2024/01/30 11:06:26;;;;;;;65.17;19.17;;;24.70;38.50;;;;;;5081662;28;20270;-73
2024/01/30 11:09:04;;;;;;;50.90;21.03;;;24.70;38.50;;;;;;5083939;28;20293;-71
2024/01/30 11:11:31;;;;;;;72.37;19.90;;;24.70;38.60;;;;;;5079695;28;20640;-73
2024/01/30 11:14:03;;;;;;;49.50;19.50;;;24.70;38.50;;;;;;5083472;28;20202;-73
2024/01/30 11:16:33;;;;;;;48.37;20.40;;;24.70;38.60;;;;;;5087027;28;20221;-72
2024/01/30 11:19:02;;;;;;;55.67;19.63;;;24.70;38.60;;;;;;5086507;28;20203;-73
2024/01/30 11:21:29;;;;;;;48.93;20.80;;;24.70;38.60;;;;;;5088046;28;20854;-73
2024/01/30 11:23:56;;;;;;;55.13;21.33;;;24.70;38.60;;;;;;5090333;28;20202;-75
2024/01/30 11:26:28;;;;;;;67.17;21.13;;;24.70;38.60;;;;;;5089366;28;20234;-75
2024/01/30 11:28:56;;;;;;;53.93;19.43;;;24.60;38.50;;;;;;5070547;28;20242;-74
2024/01/30 11:31:24;;;;;;;51.17;18.97;;;24.70;38.60;;;;;;5070439;28;20290;-73
2024/01/30 11:33:54;;;;;;;63.03;19.90;;;24.70;38.60;;;;;;5069800;28;20297;-73
2024/01/30 11:36:26;;;;;;;49.50;18.97;;;24.70;38.60;;;;;;5070558;28;20203;-73
2024/01/30 11:38:53;;;;;;;55.97;20.47;;;24.70;38.70;;;;;;5073461;28;20285;-72
2024/01/30 11:41:21;;;;;;;53.37;19.80;;;24.60;38.60;;;;;;5090477;28;20206;-75
2024/01/30 11:43:53;;;;;;;56.73;21.97;;;24.70;38.70;;;;;;5090284;28;20190;-73
2024/01/30 11:46:20;;;;;;;47.50;19.20;;;24.60;38.60;;;;;;5086789;28;20588;-73
2024/01/30 11:48:48;;;;;;;60.47;20.60;;;24.60;38.60;;;;;;5070235;28;20295;-72
2024/01/30 11:51:18;;;;;;;62.77;20.27;;;24.60;38.60;;;;;;5070371;28;20300;-72
2024/01/30 11:53:45;;;;;;;46.57;18.70;;;24.60;38.60;;;;;;5069780;28;20659;-73
2024/01/30 11:56:13;;;;;;;46.87;21.23;;;24.60;38.60;;;;;;5070714;28;20191;-73
2024/01/30 11:58:44;;;;;;;54.50;19.53;;;24.60;38.70;;;;;;5074199;28;20673;-74
2024/01/30 12:01:11;;;;;;;48.70;19.83;;;24.60;38.70;;;;;;5090518;28;20205;-73
2024/01/30 12:03:38;;;;;;;57.37;21.83;;;24.60;38.70;;;;;;5083679;28;20288;-73
2024/01/30 12:06:07;;;;;;;52.20;21.30;;;24.60;38.70;;;;;;5070303;28;20266;-72
2024/01/30 12:08:34;;;;;;;47.37;20.37;;;24.60;38.70;;;;;;5069801;28;20200;-73
2024/01/30 12:11:05;;;;;;;56.23;21.07;;;24.60;38.70;;;;;;5070214;28;20219;-72
2024/01/30 12:13:32;;;;;;;53.67;20.07;;;24.60;38.70;;;;;;5070078;28;20213;-73
2024/01/30 12:15:59;;;;;;;52.93;19.57;;;24.60;38.70;;;;;;5069689;28;20562;-72
2024/01/30 12:18:26;;;;;;;47.97;21.07;;;24.60;38.70;;;;;;5069852;28;20949;-73
2024/01/30 12:21:00;;;;;;;87.37;41.90;;;24.60;38.70;;;;;;5069269;28;20675;-73
2024/01/30 12:23:29;;;;;;;51.93;18.87;;;24.60;38.70;;;;;;5076348;28;20206;-74
2024/01/30 12:25:56;;;;;;;72.90;20.53;;;24.60;38.70;;;;;;5086295;28;20315;-73
2024/01/30 12:28:23;;;;;;;83.47;21.23;;;24.60;39.30;;;;;;5075190;28;20299;-75